Latest Weather Observations for Shepparton

IDV60801

Issued at 2:32 am EDT Wednesday 19 February 2020 (issued every 10 minutes, with the page automatically refreshed every 10 minutes)

About weather observations | Map of weather stations | Latest weather observations for VIC | Other Formats
Station Details ID: 081125 Name: SHEPPARTON AIRPORT Lat: -36.43 Lon: 145.39 Height: 113.9 m
Data from the previous 72 hours. | See also: Recent months at Shepparton
Date/Time
EDT
Temp
°C
App
Temp
°C
Dew
Point
°C
Rel
Hum
%
Delta-T
°C
Wind Press
QNH
hPa
Press
MSL
hPa
Rain since
9am
mm
Dir  Spd
km/h
Gust
km/h
Spd
kts
Gust
kts
19/02:30am 15.8 12.0 9.2 65 3.4 WSW 19 28 10 15 1006.9 1006.4 0.2
19/02:00am 16.0 12.0 9.0 63 3.6 WSW 20 28 11 15 1006.9 1006.4 0.2
19/01:30am 16.2 12.4 8.9 62 3.8 WSW 19 24 10 13 1007.0 1006.5 0.2
19/01:00am 16.9 12.5 9.1 60 4.1 SW 22 30 12 16 1006.9 1006.4 0.2
19/12:30am 17.6 14.0 10.7 64 3.7 WSW 20 30 11 16 1006.9 1006.4 0.2
19/12:00am 17.7 14.5 11.3 66 3.5 WSW 19 28 10 15 1007.0 1006.5 0.2
 
Date/Time
EDT
Temp
°C
App
Temp
°C
Dew
Point
°C
Rel
Hum
%
Delta-T
°C
Wind Press
QNH
hPa
Press
MSL
hPa
Rain since
9am
mm
Dir  Spd
km/h
Gust
km/h
Spd
kts
Gust
kts
18/11:30pm 17.9 14.9 10.5 62 4.0 SW 17 24 9 13 1007.0 1006.5 0.2
18/11:00pm 18.2 14.6 10.6 61 4.1 SW 20 32 11 17 1006.9 1006.4 0.2
18/10:30pm 18.5 13.3 10.3 59 4.4 WSW 28 39 15 21 1006.8 1006.3 0.2
18/10:00pm 19.5 14.2 10.0 54 5.1 SW 28 39 15 21 1006.7 1006.2 0.2
18/09:30pm 20.7 15.5 8.7 46 6.3 SW 26 37 14 20 1006.0 1005.5 0.2
18/09:00pm 21.6 17.4 9.8 47 6.4 SW 22 32 12 17 1005.3 1004.8 0.2
18/08:30pm 22.5 16.7 7.9 39 7.7 SW 28 37 15 20 1004.6 1004.1 0.2
18/08:00pm 23.5 17.2 8.8 39 7.9 SW 32 48 17 26 1003.9 1003.4 0.2
18/07:30pm 25.3 19.3 10.0 38 8.5 WSW 32 52 17 28 1003.1 1002.6 0.2
18/07:29pm 25.5 19.8 9.7 37 8.7 WSW 30 48 16 26 1003.0 1002.5 0.2
18/07:00pm 26.2 20.6 7.3 30 10.1 W 26 39 14 21 1002.7 1002.2 0.2
18/06:36pm 26.6 19.1 6.1 27 10.7 W 35 54 19 29 1002.5 1002.0 0.2
18/06:30pm 27.1 19.6 6.5 27 10.9 W 35 48 19 26 1002.4 1001.9 0.2
18/06:11pm 27.6 20.5 6.4 26 11.2 W 33 52 18 28 1002.3 1001.8 0.2
18/06:00pm 27.8 20.1 5.4 24 11.7 W 35 52 19 28 1002.3 1001.8 0.2
18/05:57pm 28.0 20.9 6.2 25 11.5 WNW 33 52 18 28 1002.2 1001.6 0.2
18/05:48pm 28.1 20.8 5.6 24 11.8 W 33 52 18 28 1002.3 1001.8 0.2
18/05:30pm 28.4 19.5 5.3 23 12.0 WSW 41 57 22 31 1002.2 1001.6 0.2
18/05:27pm 28.1 19.6 5.0 23 11.9 W 39 57 21 31 1002.2 1001.6 0.2
18/05:00pm 28.9 22.1 7.5 26 11.6 WNW 33 52 18 28 1002.0 1001.4 0.2
18/04:56pm 29.0 22.2 7.6 26 11.6 W 33 52 18 28 1002.0 1001.4 0.2
18/04:30pm 29.2 22.7 10.3 31 10.7 WNW 35 48 19 26 1002.1 1001.5 0.2
18/04:00pm 26.4 22.5 13.2 44 7.8 W 26 35 14 19 1002.3 1001.8 0.0
18/03:30pm 26.1 21.5 13.6 46 7.4 W 30 43 16 23 1002.7 1002.2 0.0
18/03:15pm 25.4 21.2 13.6 48 7.0 W 28 46 15 25 1002.6 1002.1 0.0
18/03:00pm 26.9 20.6 12.2 40 8.6 W 37 54 20 29 1002.6 1002.1 0.0
18/02:30pm 30.5 25.5 11.0 30 11.3 WNW 28 46 15 25 1002.1 1001.5 0.0
18/02:28pm 31.0 26.9 11.4 30 11.4 WNW 24 46 13 25 1002.0 1001.4 0.0
18/02:00pm 30.1 28.2 13.0 35 10.2 NW 15 20 8 11 1002.5 1002.0 0.0
18/01:30pm 30.5 26.5 10.5 29 11.5 NW 22 32 12 17 1002.8 1002.3 0.0
18/01:00pm 32.3 28.3 10.4 26 12.7 NW 22 32 12 17 1003.1 1002.6 0.0
18/12:30pm 31.6 28.1 10.9 28 12.0 NNW 20 33 11 18 1003.7 1003.2 0.0
18/12:00pm 32.2 28.4 12.4 30 11.8 NNW 24 33 13 18 1004.5 1004.0 0.0
18/11:30am 30.7 27.1 13.0 33 10.6 N 24 32 13 17 1005.0 1004.5 0.0
18/11:00am 27.5 26.2 14.8 45 7.7 N 15 20 8 11 1005.3 1004.8 0.0
18/10:30am 26.5 26.0 15.8 51 6.6 NNE 13 19 7 10 1005.6 1005.1 0.0
18/10:00am 24.2 23.6 16.7 63 4.6 NE 15 20 8 11 1005.4 1004.9 0.0
18/09:30am 24.6 25.5 16.1 59 5.2 NNW 6 15 3 8 1006.8 1006.3 0.0
18/09:00am 24.4 24.8 16.4 61 4.9 E 9 13 5 7 1005.6 1005.1 0.0
18/08:30am 22.1 22.2 16.4 70 3.5 ENE 11 15 6 8 1005.5 1005.0 0.0
18/08:00am 21.5 22.7 17.3 77 2.6 SE 7 9 4 5 1005.8 1005.3 0.0
18/07:30am 19.6 20.0 17.2 86 1.5 S 11 13 6 7 1006.1 1005.6 0.0
18/07:00am 19.6 20.7 17.2 86 1.5 E 7 9 4 5 1005.8 1005.3 0.0
18/06:30am 18.5 20.4 16.8 90 1.0 E 2 9 1 5 1005.5 1005.0 0.0
18/06:00am 18.4 19.3 16.2 87 1.3 E 6 9 3 5 1005.2 1004.7 0.0
18/05:30am 18.8 19.8 16.8 88 1.2 SE 7 11 4 6 1005.3 1004.8 0.0
18/05:00am 19.0 20.9 16.6 86 1.5 SSW 2 7 1 4 1006.1 1005.6 0.0
18/04:30am 19.4 21.3 16.8 85 1.6 SSW 2 9 1 5 1006.3 1005.8 0.0
18/04:00am 19.7 20.7 16.9 84 1.7 SSW 7 11 4 6 1006.4 1005.9 0.0
18/03:30am 19.7 20.7 16.9 84 1.7 SSW 7 9 4 5 1006.5 1006.0 0.0
18/03:00am 19.9 21.0 16.7 82 1.9 SSW 6 11 3 6 1006.7 1006.2 0.0
18/02:30am 20.5 22.8 16.7 79 2.3 CALM 0 0 0 0 1007.1 1006.6 0.0
18/02:00am 20.8 21.8 16.8 78 2.4 SSW 7 13 4 7 1007.3 1006.8 0.0
18/01:30am 20.9 21.5 16.7 77 2.6 SSW 9 11 5 6 1007.4 1006.9 0.0
18/01:00am 21.6 22.5 16.6 73 3.1 SSW 7 7 4 4 1007.4 1006.9 0.0
18/12:30am 22.5 23.6 16.5 69 3.7 SSW 6 9 3 5 1007.5 1007.0 0.0
18/12:00am 23.1 22.9 16.6 67 4.0 SSW 13 17 7 9 1007.7 1007.2 0.0
 
Date/Time
EDT
Temp
°C
App
Temp
°C
Dew
Point
°C
Rel
Hum
%
Delta-T
°C
Wind Press
QNH
hPa
Press
MSL
hPa
Rain since
9am
mm
Dir  Spd
km/h
Gust
km/h
Spd
kts
Gust
kts
17/11:30pm 24.0 24.3 16.0 61 4.9 SSW 9 13 5 7 1008.0 1007.5 0.0
17/11:00pm 25.3 25.4 15.6 55 5.9 S 9 13 5 7 1007.8 1007.3 0.0
17/10:30pm 25.8 25.4 15.2 52 6.4 S 11 13 6 7 1007.8 1007.3 0.0
17/10:00pm 26.4 25.5 14.8 49 7.0 SSW 13 15 7 8 1007.8 1007.3 0.0
17/09:30pm 26.0 24.9 10.6 38 8.7 SW 7 13 4 7 1007.4 1006.9 0.0
17/09:00pm 26.7 24.9 9.5 34 9.6 WSW 9 11 5 6 1007.2 1006.7 0.0
17/08:30pm 29.0 27.5 9.2 29 11.0 WNW 7 9 4 5 1007.0 1006.5 0.0
17/08:00pm 31.0 29.4 8.1 24 12.7 WNW 6 9 3 5 1006.7 1006.2 0.0
17/07:30pm 32.4 29.3 7.3 21 13.8 WNW 13 19 7 10 1006.6 1006.1 0.0
17/07:00pm 33.2 29.7 7.2 20 14.4 WNW 15 20 8 11 1006.5 1006.0 0.0
17/06:30pm 34.0 33.3 8.6 21 14.4 ESE 2 11 1 6 1006.5 1006.0 0.0
17/06:00pm 33.3 30.8 8.0 21 14.2 W 11 17 6 9 1006.4 1005.9 0.0
17/05:30pm 33.7 33.5 10.3 24 13.6 NNE 2 9 1 5 1006.7 1006.2 0.0
17/05:00pm 33.4 32.1 11.3 26 13.0 SW 9 20 5 11 1006.9 1006.4 0.0
17/04:30pm 32.9 31.3 11.4 27 12.6 WSW 11 15 6 8 1007.2 1006.7 0.0
17/04:00pm 33.2 32.0 11.7 27 12.7 WNW 9 19 5 10 1007.4 1006.9 0.0
17/03:30pm 32.7 30.1 10.7 26 12.8 NW 15 22 8 12 1008.0 1007.5 0.0
17/03:00pm 32.6 30.9 12.3 29 12.1 NNW 13 28 7 15 1008.4 1007.9 0.0
17/02:30pm 32.3 30.2 12.5 30 11.8 WNW 15 32 8 17 1008.6 1008.1 0.0
17/02:00pm 31.5 29.3 13.3 33 11.0 NNW 17 24 9 13 1008.9 1008.4 0.0
17/01:30pm 31.4 30.8 13.6 33 10.8 NW 9 17 5 9 1009.4 1008.9 0.0
17/01:00pm 30.2 30.3 15.5 41 9.1 NE 9 20 5 11 1009.8 1009.3 0.0
17/12:30pm 29.5 29.5 16.3 45 8.3 NNE 11 20 6 11 1010.3 1009.8 0.0
17/12:00pm 28.7 28.2 15.9 45 7.9 NNE 13 17 7 9 1010.9 1010.4 0.0
17/11:30am 27.8 26.2 16.1 49 7.2 N 19 26 10 14 1011.1 1010.6 0.0
17/11:00am 27.1 25.1 16.4 52 6.6 NNE 22 28 12 15 1011.4 1010.9 0.0
17/10:30am 26.3 24.5 16.0 53 6.3 NNE 20 28 11 15 1011.6 1011.1 0.0
17/10:00am 25.4 24.1 15.7 55 5.9 NNE 17 24 9 13 1011.7 1011.2 0.0
17/09:30am 24.3 21.4 15.2 57 5.5 NNE 24 32 13 17 1011.9 1011.4 0.0
17/09:00am 23.5 23.2 15.5 60 4.8 ENE 11 20 6 11 1011.8 1011.3 0.0
17/08:30am 21.5 20.9 14.6 65 4.1 ENE 11 17 6 9 1011.8 1011.3 0.0
17/08:00am 19.9 19.9 14.3 70 3.3 E 7 11 4 6 1011.8 1011.3 0.0
17/07:30am 19.0 19.3 14.5 75 2.6 E 6 9 3 5 1011.6 1011.1 0.0
17/07:00am 18.1 18.3 14.2 78 2.3 E 6 7 3 4 1011.3 1010.8 0.0
17/06:30am 18.3 18.2 14.0 76 2.5 E 7 11 4 6 1011.0 1010.5 0.0
17/06:00am 19.1 18.7 14.1 73 2.9 E 9 13 5 7 1010.9 1010.4 0.0
17/05:30am 19.1 18.8 14.4 74 2.7 E 9 11 5 6 1010.8 1010.3 0.0
17/05:00am 19.0 18.7 14.3 74 2.7 ESE 9 13 5 7 1010.7 1010.2 0.0
17/04:30am 19.1 18.6 13.9 72 3.0 ESE 9 11 5 6 1010.6 1010.1 0.0
17/04:00am 19.6 18.8 14.0 70 3.2 ESE 11 15 6 8 1010.5 1010.0 0.0
17/03:30am 19.3 18.1 13.9 71 3.1 ESE 13 17 7 9 1010.5 1010.0 0.0
17/03:00am 19.7 18.9 14.1 70 3.3 SE 11 17 6 9 1010.5 1010.0 0.0
17/02:30am 18.7 18.8 14.4 76 2.5 SSE 7 9 4 5 1010.7 1010.2 0.0
17/02:00am 19.7 21.1 14.5 72 3.0 CALM 0 0 0 0 1010.7 1010.2 0.0
17/01:30am 20.4 21.2 14.7 70 3.4 SSE 4 7 2 4 1010.7 1010.2 0.0
17/01:00am 20.8 21.2 14.7 68 3.6 SSE 6 7 3 4 1010.6 1010.1 0.0
17/12:30am 21.4 21.7 14.6 65 4.0 SSE 6 9 3 5 1010.5 1010.0 0.0
17/12:00am 22.4 22.6 14.8 62 4.5 SSE 7 11 4 6 1010.6 1010.1 0.0
 
Date/Time
EDT
Temp
°C
App
Temp
°C
Dew
Point
°C
Rel
Hum
%
Delta-T
°C
Wind Press
QNH
hPa
Press
MSL
hPa
Rain since
9am
mm
Dir  Spd
km/h
Gust
km/h
Spd
kts
Gust
kts
16/11:30pm 23.6 23.4 14.6 57 5.4 SSE 9 17 5 9 1010.6 1010.1 0.0
16/11:00pm 24.3 23.5 15.0 56 5.6 SSE 13 17 7 9 1010.4 1009.9 0.0
16/10:30pm 25.1 23.6 15.4 55 5.9 SSE 17 20 9 11 1010.4 1009.9 0.0
16/10:00pm 25.6 25.0 16.7 58 5.5 S 15 19 8 10 1010.0 1009.6 0.0
16/09:30pm 26.1 25.1 17.5 59 5.4 S 19 24 10 13 1009.7 1009.2 0.0
16/09:00pm 27.1 26.4 17.3 55 6.2 S 17 22 9 12 1009.4 1008.9 0.0
16/08:30pm 27.8 27.0 17.0 51 6.8 SSW 17 22 9 12 1009.1 1008.6 0.0
16/08:00pm 28.8 27.3 16.7 48 7.6 SSW 20 26 11 14 1008.7 1008.2 0.0
16/07:30pm 30.7 29.9 15.2 39 9.6 SW 13 19 7 10 1008.4 1007.9 0.0
16/07:00pm 32.3 30.7 7.9 22 13.6 NW 6 15 3 8 1008.2 1007.7 0.0
16/06:30pm 32.5 30.3 8.0 22 13.6 N 9 15 5 8 1008.3 1007.8 0.0
16/06:00pm 32.6 30.5 8.1 22 13.7 NE 9 15 5 8 1008.2 1007.7 0.0
16/05:30pm 32.6 31.3 10.0 25 13.0 NNW 7 17 4 9 1008.4 1007.9 0.0
16/05:00pm 32.5 30.9 11.6 28 12.3 N 11 19 6 10 1008.5 1008.0 0.0
16/04:30pm 32.3 31.1 14.0 33 11.2 NW 13 22 7 12 1008.7 1008.2 0.0
16/04:00pm 31.6 31.6 14.3 35 10.6 N 7 13 4 7 1009.0 1008.5 0.0
16/03:30pm 32.3 30.7 14.0 33 11.2 NNW 15 24 8 13 1009.2 1008.7 0.0
16/03:00pm 31.0 30.6 14.2 36 10.2 ENE 9 17 5 9 1009.6 1009.1 0.0
16/02:30pm 31.0 29.9 14.2 36 10.2 NE 13 22 7 12 1009.8 1009.3 0.0
16/02:00pm 30.9 29.9 15.7 39 9.5 NNE 15 24 8 13 1010.2 1009.7 0.0
16/01:30pm 30.3 30.2 16.0 42 8.9 NE 11 22 6 12 1010.4 1009.9 0.0
16/01:00pm 29.8 29.0 16.2 43 8.5 NNE 15 24 8 13 1010.7 1010.2 0.0
16/12:30pm 29.0 28.0 16.5 46 7.8 NNE 17 26 9 14 1011.0 1010.5 0.0
16/12:00pm 28.7 27.4 16.9 48 7.4 NE 19 28 10 15 1011.4 1010.9 0.0
16/11:30am 27.8 26.6 16.1 49 7.2 NE 17 30 9 16 1011.7 1011.2 0.0
16/11:00am 27.5 25.6 15.8 48 7.2 NE 20 32 11 17 1011.9 1011.4 0.0
16/10:30am 27.5 26.3 16.1 49 7.1 ENE 17 26 9 14 1012.0 1011.5 0.0
16/10:00am 25.9 25.3 15.6 53 6.3 ESE 13 20 7 11 1012.1 1011.6 0.0
16/09:30am 24.1 23.7 15.3 58 5.3 SE 11 20 6 11 1011.9 1011.4 0.0
16/09:00am 22.3 22.1 15.6 66 4.0 SSE 11 13 6 7 1012.0 1011.5 0.0
16/08:30am 20.2 19.2 15.6 75 2.7 S 15 19 8 10 1011.8 1011.3 0.0
16/08:00am 18.7 18.4 15.4 81 2.0 S 11 15 6 8 1011.5 1011.0 0.0
16/07:30am 17.7 17.3 15.1 85 1.5 S 11 15 6 8 1011.0 1010.5 0.0
16/07:00am 17.2 17.1 15.0 87 1.3 S 9 13 5 7 1010.6 1010.1 0.0
16/06:30am 17.2 16.4 15.0 87 1.3 S 13 17 7 9 1010.3 1009.8 0.0
16/06:00am 17.0 16.2 15.0 88 1.2 SSW 13 15 7 8 1010.0 1009.6 0.0
16/05:30am 16.9 16.0 14.9 88 1.2 S 13 19 7 10 1009.9 1009.5 0.0
16/05:00am 17.0 15.7 14.8 87 1.3 S 15 20 8 11 1009.8 1009.3 0.0
16/04:30am 17.1 15.8 14.9 87 1.3 SSW 15 22 8 12 1009.6 1009.1 0.0
16/04:00am 17.1 15.5 14.9 87 1.3 SSW 17 24 9 13 1009.5 1009.0 0.0
16/03:30am 17.2 15.5 14.8 86 1.4 SSW 17 22 9 12 1009.5 1009.0 0.0
16/03:00am 17.4 15.7 14.7 84 1.6 SSW 17 22 9 12 1009.6 1009.1 0.0

Other formats

Comma delimited format used in spreadsheet applications
http://www.bom.gov.au/fwo/IDV60801/IDV60801.94875.axf

JavaScript Object Notation format (JSON) in row-major order
http://www.bom.gov.au/fwo/IDV60801/IDV60801.94875.json

Data quality

Most of these data are generated automatically and are frequently updated. Quality checks on data are not normally performed. It is possible for incorrect values to appear. Refer to information at About Latest Weather Observations and please check the disclaimer before using these data.